<?xml version="1.0" encoding="UTF-8" standalone="no" ?>
<gpx xmlns="http://www.topografix.com/GPX/1/1" xmlns:xsi="http://www.w3.org/2001/XMLSchema-instance" xsi:schemaLocation="http://www.topografix.com/GPX/1/1 http://www.topografix.com/GPX/1/1/gpx.xsd" version="1.1" creator="VisuGPX - https://www.visugpx.com">
  <metadata>
    <name>AVF-Sortie sur la route coupée des Gorges de Châteaudouble</name>
    <desc><![CDATA[Route  coupée et détruite par les inondations de la Nartuby en 2010 des Gorges de Châteaudouble]]></desc>
  </metadata>
  <wpt lat="43.58269" lon="6.42579">
    <ele>278.73</ele>
    <name><![CDATA[0000191]]></name>
    <desc><![CDATA[]]></desc>
    <type><![CDATA[Point de départ]]></type>
  </wpt>
  <wpt lat="43.58264" lon="6.42591">
    <ele>293.01</ele>
    <name><![CDATA[0000192]]></name>
    <desc><![CDATA[<br /><h3>Nom: Segment 1</h3><br /><p>Temps de départ: 06/11/2013 09:53</p><p>Temps d'arrivée: 06/11/2013 12:02</p><p>Distance: 6,7 km (02:09)</p><p>Temps déplacement: 01:15</p><p>Vitesse moyenne: 3,1 km/h</p><p>Vitesse moyenne: 5,3 km/h</p><p>Vitess Max.: 13,9 km/h</p><p>Altitude minimale: 276 m</p><p>Altitude maximale: 406 m</p><p>Vitesse d'élévation: 223,5 m/h</p><p>Vitesse de descente: -159,6 m/h</p><p>Gain Altitude: 166 m</p><p>Perte Altitude: -150 m</p><p>Temps d'élévation: 00:44</p><p>Temps de descente: 00:56</p>]]></desc>
    <type><![CDATA[Point d'arrivée]]></type>
  </wpt>
  <trk>
    <name><![CDATA[]]></name>
    <desc><![CDATA[<h1>OruxMaps</h1><br /><hr align="center" width="480" style="height: 2px; width: 517px"/><h2>Nom: </h2><br /><p>Temps de départ: 06/11/2013 09:53</p><p>Temps d'arrivée: 06/11/2013 12:02</p><p>Distance: 6,7 km (02:09)</p><p>Temps déplacement: 01:15</p><p>Vitesse moyenne: 3,1 km/h</p><p>Vitesse moyenne: 5,3 km/h</p><p>Vitess Max.: 13,9 km/h</p><p>Altitude minimale: 276 m</p><p>Altitude maximale: 406 m</p><p>Vitesse d'élévation: 223,5 m/h</p><p>Vitesse de descente: -159,6 m/h</p><p>Gain Altitude: 166 m</p><p>Perte Altitude: -150 m</p><p>Temps d'élévation: 00:44</p><p>Temps de descente: 00:56</p><hr align="center" width="480" style="height: 2px; width: 517px"/>]]></desc>
    <trkseg>
      <trkpt lat="43.58269" lon="6.42579">
        <ele>278.73</ele>
        <time>2013-06-11T07:53:20Z</time>
      </trkpt>
      <trkpt lat="43.58277" lon="6.42586">
        <ele>276.99</ele>
        <time>2013-06-11T07:53:29Z</time>
      </trkpt>
      <trkpt lat="43.58283" lon="6.42596">
        <ele>278.66</ele>
        <time>2013-06-11T07:53:58Z</time>
      </trkpt>
      <trkpt lat="43.58293" lon="6.426">
        <ele>285.74</ele>
        <time>2013-06-11T07:54:22Z</time>
      </trkpt>
      <trkpt lat="43.58304" lon="6.42591">
        <ele>288.63</ele>
        <time>2013-06-11T07:54:34Z</time>
      </trkpt>
      <trkpt lat="43.58313" lon="6.42584">
        <ele>290.86</ele>
        <time>2013-06-11T07:54:41Z</time>
      </trkpt>
      <trkpt lat="43.58327" lon="6.42584">
        <ele>292.55</ele>
        <time>2013-06-11T07:54:50Z</time>
      </trkpt>
      <trkpt lat="43.58336" lon="6.4258">
        <ele>293.71</ele>
        <time>2013-06-11T07:54:58Z</time>
      </trkpt>
      <trkpt lat="43.58346" lon="6.42581">
        <ele>294.8</ele>
        <time>2013-06-11T07:55:14Z</time>
      </trkpt>
      <trkpt lat="43.58354" lon="6.42585">
        <ele>295.44</ele>
        <time>2013-06-11T07:55:26Z</time>
      </trkpt>
      <trkpt lat="43.58363" lon="6.4259">
        <ele>295.67</ele>
        <time>2013-06-11T07:55:36Z</time>
      </trkpt>
      <trkpt lat="43.58399" lon="6.42539">
        <ele>294.55</ele>
        <time>2013-06-11T07:56:55Z</time>
      </trkpt>
      <trkpt lat="43.58408" lon="6.42557">
        <ele>294.55</ele>
        <time>2013-06-11T07:56:57Z</time>
      </trkpt>
      <trkpt lat="43.58415" lon="6.42566">
        <ele>294.55</ele>
        <time>2013-06-11T07:57:03Z</time>
      </trkpt>
      <trkpt lat="43.58442" lon="6.42575">
        <ele>292.88</ele>
        <time>2013-06-11T07:58:00Z</time>
      </trkpt>
      <trkpt lat="43.58446" lon="6.42589">
        <ele>287.42</ele>
        <time>2013-06-11T07:58:40Z</time>
      </trkpt>
      <trkpt lat="43.58456" lon="6.42587">
        <ele>286.58</ele>
        <time>2013-06-11T07:58:50Z</time>
      </trkpt>
      <trkpt lat="43.58461" lon="6.42575">
        <ele>284.06</ele>
        <time>2013-06-11T07:59:05Z</time>
      </trkpt>
      <trkpt lat="43.58467" lon="6.42563">
        <ele>285.7</ele>
        <time>2013-06-11T07:59:19Z</time>
      </trkpt>
      <trkpt lat="43.58473" lon="6.42549">
        <ele>288.57</ele>
        <time>2013-06-11T07:59:29Z</time>
      </trkpt>
      <trkpt lat="43.58481" lon="6.42538">
        <ele>291.11</ele>
        <time>2013-06-11T07:59:37Z</time>
      </trkpt>
      <trkpt lat="43.58489" lon="6.4253">
        <ele>293.24</ele>
        <time>2013-06-11T07:59:43Z</time>
      </trkpt>
      <trkpt lat="43.58497" lon="6.42522">
        <ele>295.16</ele>
        <time>2013-06-11T07:59:52Z</time>
      </trkpt>
      <trkpt lat="43.58504" lon="6.42512">
        <ele>296.57</ele>
        <time>2013-06-11T08:00:00Z</time>
      </trkpt>
      <trkpt lat="43.58512" lon="6.42503">
        <ele>297.94</ele>
        <time>2013-06-11T08:00:07Z</time>
      </trkpt>
      <trkpt lat="43.58521" lon="6.42498">
        <ele>299.19</ele>
        <time>2013-06-11T08:00:14Z</time>
      </trkpt>
      <trkpt lat="43.58531" lon="6.42491">
        <ele>300.41</ele>
        <time>2013-06-11T08:00:20Z</time>
      </trkpt>
      <trkpt lat="43.58539" lon="6.42487">
        <ele>302.2</ele>
        <time>2013-06-11T08:00:25Z</time>
      </trkpt>
      <trkpt lat="43.58542" lon="6.42499">
        <ele>305.9</ele>
        <time>2013-06-11T08:00:51Z</time>
      </trkpt>
      <trkpt lat="43.58545" lon="6.42483">
        <ele>305.5</ele>
        <time>2013-06-11T08:01:02Z</time>
      </trkpt>
      <trkpt lat="43.5855" lon="6.4247">
        <ele>305.31</ele>
        <time>2013-06-11T08:01:13Z</time>
      </trkpt>
      <trkpt lat="43.5854" lon="6.42472">
        <ele>305.85</ele>
        <time>2013-06-11T08:01:33Z</time>
      </trkpt>
      <trkpt lat="43.58537" lon="6.42458">
        <ele>306.33</ele>
        <time>2013-06-11T08:01:42Z</time>
      </trkpt>
      <trkpt lat="43.58541" lon="6.42444">
        <ele>306.36</ele>
        <time>2013-06-11T08:01:48Z</time>
      </trkpt>
      <trkpt lat="43.58553" lon="6.42443">
        <ele>305.95</ele>
        <time>2013-06-11T08:01:59Z</time>
      </trkpt>
      <trkpt lat="43.58563" lon="6.42442">
        <ele>305.39</ele>
        <time>2013-06-11T08:02:06Z</time>
      </trkpt>
      <trkpt lat="43.58575" lon="6.42434">
        <ele>304.22</ele>
        <time>2013-06-11T08:02:15Z</time>
      </trkpt>
      <trkpt lat="43.58584" lon="6.42438">
        <ele>302.59</ele>
        <time>2013-06-11T08:02:28Z</time>
      </trkpt>
      <trkpt lat="43.5859" lon="6.42447">
        <ele>301.05</ele>
        <time>2013-06-11T08:02:37Z</time>
      </trkpt>
      <trkpt lat="43.586" lon="6.42447">
        <ele>298.96</ele>
        <time>2013-06-11T08:02:54Z</time>
      </trkpt>
      <trkpt lat="43.58613" lon="6.42454">
        <ele>296.94</ele>
        <time>2013-06-11T08:03:03Z</time>
      </trkpt>
      <trkpt lat="43.58625" lon="6.42456">
        <ele>296.78</ele>
        <time>2013-06-11T08:03:09Z</time>
      </trkpt>
      <trkpt lat="43.58635" lon="6.42454">
        <ele>297.74</ele>
        <time>2013-06-11T08:03:14Z</time>
      </trkpt>
      <trkpt lat="43.58644" lon="6.42453">
        <ele>299.34</ele>
        <time>2013-06-11T08:03:19Z</time>
      </trkpt>
      <trkpt lat="43.58656" lon="6.42452">
        <ele>303.39</ele>
        <time>2013-06-11T08:03:31Z</time>
      </trkpt>
      <trkpt lat="43.58665" lon="6.42451">
        <ele>307.17</ele>
        <time>2013-06-11T08:03:43Z</time>
      </trkpt>
      <trkpt lat="43.58675" lon="6.42452">
        <ele>308.9</ele>
        <time>2013-06-11T08:03:54Z</time>
      </trkpt>
      <trkpt lat="43.58685" lon="6.42453">
        <ele>310.37</ele>
        <time>2013-06-11T08:04:03Z</time>
      </trkpt>
      <trkpt lat="43.58694" lon="6.42455">
        <ele>310.83</ele>
        <time>2013-06-11T08:04:29Z</time>
      </trkpt>
      <trkpt lat="43.58705" lon="6.42457">
        <ele>309.87</ele>
        <time>2013-06-11T08:04:41Z</time>
      </trkpt>
      <trkpt lat="43.58715" lon="6.42455">
        <ele>308.77</ele>
        <time>2013-06-11T08:04:50Z</time>
      </trkpt>
      <trkpt lat="43.58726" lon="6.42453">
        <ele>307.55</ele>
        <time>2013-06-11T08:05:00Z</time>
      </trkpt>
      <trkpt lat="43.58735" lon="6.42451">
        <ele>306.85</ele>
        <time>2013-06-11T08:05:07Z</time>
      </trkpt>
      <trkpt lat="43.58744" lon="6.4245">
        <ele>305.61</ele>
        <time>2013-06-11T08:05:21Z</time>
      </trkpt>
      <trkpt lat="43.58752" lon="6.42444">
        <ele>305.18</ele>
        <time>2013-06-11T08:05:31Z</time>
      </trkpt>
      <trkpt lat="43.58761" lon="6.42444">
        <ele>305.05</ele>
        <time>2013-06-11T08:05:44Z</time>
      </trkpt>
      <trkpt lat="43.5877" lon="6.42454">
        <ele>305.15</ele>
        <time>2013-06-11T08:06:03Z</time>
      </trkpt>
      <trkpt lat="43.58775" lon="6.42464">
        <ele>305.05</ele>
        <time>2013-06-11T08:06:10Z</time>
      </trkpt>
      <trkpt lat="43.58778" lon="6.42476">
        <ele>305.62</ele>
        <time>2013-06-11T08:06:19Z</time>
      </trkpt>
      <trkpt lat="43.58782" lon="6.42489">
        <ele>306.81</ele>
        <time>2013-06-11T08:06:27Z</time>
      </trkpt>
      <trkpt lat="43.58786" lon="6.42501">
        <ele>308.66</ele>
        <time>2013-06-11T08:07:24Z</time>
      </trkpt>
      <trkpt lat="43.5879" lon="6.42513">
        <ele>308.48</ele>
        <time>2013-06-11T08:07:36Z</time>
      </trkpt>
      <trkpt lat="43.588" lon="6.42516">
        <ele>308.28</ele>
        <time>2013-06-11T08:07:42Z</time>
      </trkpt>
      <trkpt lat="43.58809" lon="6.4252">
        <ele>307.99</ele>
        <time>2013-06-11T08:07:47Z</time>
      </trkpt>
      <trkpt lat="43.5882" lon="6.42527">
        <ele>306.93</ele>
        <time>2013-06-11T08:07:56Z</time>
      </trkpt>
      <trkpt lat="43.58831" lon="6.42539">
        <ele>305.3</ele>
        <time>2013-06-11T08:08:04Z</time>
      </trkpt>
      <trkpt lat="43.58853" lon="6.42551">
        <ele>303.76</ele>
        <time>2013-06-11T08:08:32Z</time>
      </trkpt>
      <trkpt lat="43.58848" lon="6.42581">
        <ele>303.4</ele>
        <time>2013-06-11T08:08:39Z</time>
      </trkpt>
      <trkpt lat="43.5885" lon="6.42594">
        <ele>301.42</ele>
        <time>2013-06-11T08:08:52Z</time>
      </trkpt>
      <trkpt lat="43.58849" lon="6.42607">
        <ele>300.46</ele>
        <time>2013-06-11T08:08:58Z</time>
      </trkpt>
      <trkpt lat="43.58856" lon="6.42635">
        <ele>300.03</ele>
        <time>2013-06-11T08:09:10Z</time>
      </trkpt>
      <trkpt lat="43.58865" lon="6.42647">
        <ele>299.78</ele>
        <time>2013-06-11T08:09:16Z</time>
      </trkpt>
      <trkpt lat="43.58874" lon="6.42643">
        <ele>299.75</ele>
        <time>2013-06-11T08:09:22Z</time>
      </trkpt>
      <trkpt lat="43.58879" lon="6.42655">
        <ele>300.5</ele>
        <time>2013-06-11T08:09:32Z</time>
      </trkpt>
      <trkpt lat="43.58882" lon="6.42672">
        <ele>302.89</ele>
        <time>2013-06-11T08:09:39Z</time>
      </trkpt>
      <trkpt lat="43.58886" lon="6.42687">
        <ele>306.22</ele>
        <time>2013-06-11T08:09:45Z</time>
      </trkpt>
      <trkpt lat="43.58891" lon="6.42698">
        <ele>310.69</ele>
        <time>2013-06-11T08:09:52Z</time>
      </trkpt>
      <trkpt lat="43.589" lon="6.42707">
        <ele>316.78</ele>
        <time>2013-06-11T08:10:55Z</time>
      </trkpt>
      <trkpt lat="43.5891" lon="6.42713">
        <ele>316.52</ele>
        <time>2013-06-11T08:11:02Z</time>
      </trkpt>
      <trkpt lat="43.58916" lon="6.42722">
        <ele>315.95</ele>
        <time>2013-06-11T08:11:09Z</time>
      </trkpt>
      <trkpt lat="43.58916" lon="6.42735">
        <ele>314.23</ele>
        <time>2013-06-11T08:11:45Z</time>
      </trkpt>
      <trkpt lat="43.5892" lon="6.4275">
        <ele>313.89</ele>
        <time>2013-06-11T08:11:54Z</time>
      </trkpt>
      <trkpt lat="43.58917" lon="6.42762">
        <ele>313.18</ele>
        <time>2013-06-11T08:12:29Z</time>
      </trkpt>
      <trkpt lat="43.5892" lon="6.42775">
        <ele>313.28</ele>
        <time>2013-06-11T08:12:45Z</time>
      </trkpt>
      <trkpt lat="43.58921" lon="6.42793">
        <ele>313.14</ele>
        <time>2013-06-11T08:13:00Z</time>
      </trkpt>
      <trkpt lat="43.58922" lon="6.42806">
        <ele>312.85</ele>
        <time>2013-06-11T08:13:07Z</time>
      </trkpt>
      <trkpt lat="43.58923" lon="6.4282">
        <ele>312.51</ele>
        <time>2013-06-11T08:13:13Z</time>
      </trkpt>
      <trkpt lat="43.58929" lon="6.42833">
        <ele>311.91</ele>
        <time>2013-06-11T08:13:23Z</time>
      </trkpt>
      <trkpt lat="43.58944" lon="6.42841">
        <ele>311.36</ele>
        <time>2013-06-11T08:13:34Z</time>
      </trkpt>
      <trkpt lat="43.58954" lon="6.42842">
        <ele>312.24</ele>
        <time>2013-06-11T08:13:37Z</time>
      </trkpt>
      <trkpt lat="43.58967" lon="6.42842">
        <ele>315.39</ele>
        <time>2013-06-11T08:13:46Z</time>
      </trkpt>
      <trkpt lat="43.58977" lon="6.42848">
        <ele>317.85</ele>
        <time>2013-06-11T08:13:52Z</time>
      </trkpt>
      <trkpt lat="43.58986" lon="6.42855">
        <ele>321.79</ele>
        <time>2013-06-11T08:14:01Z</time>
      </trkpt>
      <trkpt lat="43.58992" lon="6.42867">
        <ele>324.25</ele>
        <time>2013-06-11T08:14:09Z</time>
      </trkpt>
      <trkpt lat="43.58987" lon="6.42879">
        <ele>328.41</ele>
        <time>2013-06-11T08:15:24Z</time>
      </trkpt>
      <trkpt lat="43.5899" lon="6.42891">
        <ele>329.42</ele>
        <time>2013-06-11T08:15:30Z</time>
      </trkpt>
      <trkpt lat="43.58995" lon="6.42879">
        <ele>330.18</ele>
        <time>2013-06-11T08:15:35Z</time>
      </trkpt>
      <trkpt lat="43.58988" lon="6.42891">
        <ele>332.42</ele>
        <time>2013-06-11T08:16:08Z</time>
      </trkpt>
      <trkpt lat="43.58992" lon="6.42902">
        <ele>332.52</ele>
        <time>2013-06-11T08:16:20Z</time>
      </trkpt>
      <trkpt lat="43.58993" lon="6.42916">
        <ele>332.07</ele>
        <time>2013-06-11T08:16:32Z</time>
      </trkpt>
      <trkpt lat="43.58991" lon="6.42933">
        <ele>331.72</ele>
        <time>2013-06-11T08:16:40Z</time>
      </trkpt>
      <trkpt lat="43.58992" lon="6.42945">
        <ele>331.08</ele>
        <time>2013-06-11T08:16:47Z</time>
      </trkpt>
      <trkpt lat="43.58996" lon="6.42975">
        <ele>330.62</ele>
        <time>2013-06-11T08:17:04Z</time>
      </trkpt>
      <trkpt lat="43.58981" lon="6.43021">
        <ele>330.48</ele>
        <time>2013-06-11T08:17:27Z</time>
      </trkpt>
      <trkpt lat="43.5901" lon="6.43027">
        <ele>330.12</ele>
        <time>2013-06-11T08:17:37Z</time>
      </trkpt>
      <trkpt lat="43.59001" lon="6.43025">
        <ele>329.4</ele>
        <time>2013-06-11T08:17:45Z</time>
      </trkpt>
      <trkpt lat="43.59001" lon="6.43037">
        <ele>330.63</ele>
        <time>2013-06-11T08:17:57Z</time>
      </trkpt>
      <trkpt lat="43.59002" lon="6.43051">
        <ele>332.4</ele>
        <time>2013-06-11T08:18:08Z</time>
      </trkpt>
      <trkpt lat="43.59003" lon="6.43064">
        <ele>334.19</ele>
        <time>2013-06-11T08:18:18Z</time>
      </trkpt>
      <trkpt lat="43.59005" lon="6.43078">
        <ele>335.84</ele>
        <time>2013-06-11T08:18:30Z</time>
      </trkpt>
      <trkpt lat="43.59014" lon="6.43068">
        <ele>338.5</ele>
        <time>2013-06-11T08:19:03Z</time>
      </trkpt>
      <trkpt lat="43.59008" lon="6.43078">
        <ele>338.43</ele>
        <time>2013-06-11T08:19:11Z</time>
      </trkpt>
      <trkpt lat="43.58998" lon="6.43084">
        <ele>338.17</ele>
        <time>2013-06-11T08:19:21Z</time>
      </trkpt>
      <trkpt lat="43.59005" lon="6.43094">
        <ele>336.98</ele>
        <time>2013-06-11T08:19:46Z</time>
      </trkpt>
      <trkpt lat="43.59009" lon="6.43113">
        <ele>335.33</ele>
        <time>2013-06-11T08:20:16Z</time>
      </trkpt>
      <trkpt lat="43.59031" lon="6.43169">
        <ele>339.11</ele>
        <time>2013-06-11T08:21:12Z</time>
      </trkpt>
      <trkpt lat="43.59034" lon="6.43185">
        <ele>339.15</ele>
        <time>2013-06-11T08:21:17Z</time>
      </trkpt>
      <trkpt lat="43.59037" lon="6.43197">
        <ele>339.26</ele>
        <time>2013-06-11T08:21:24Z</time>
      </trkpt>
      <trkpt lat="43.59042" lon="6.43209">
        <ele>339.45</ele>
        <time>2013-06-11T08:21:32Z</time>
      </trkpt>
      <trkpt lat="43.59045" lon="6.43222">
        <ele>339.96</ele>
        <time>2013-06-11T08:21:40Z</time>
      </trkpt>
      <trkpt lat="43.59048" lon="6.43235">
        <ele>340.48</ele>
        <time>2013-06-11T08:21:50Z</time>
      </trkpt>
      <trkpt lat="43.59052" lon="6.43248">
        <ele>340.58</ele>
        <time>2013-06-11T08:21:58Z</time>
      </trkpt>
      <trkpt lat="43.59053" lon="6.43264">
        <ele>341.24</ele>
        <time>2013-06-11T08:22:07Z</time>
      </trkpt>
      <trkpt lat="43.59055" lon="6.4328">
        <ele>342.08</ele>
        <time>2013-06-11T08:22:15Z</time>
      </trkpt>
      <trkpt lat="43.59064" lon="6.43289">
        <ele>342.9</ele>
        <time>2013-06-11T08:22:21Z</time>
      </trkpt>
      <trkpt lat="43.59072" lon="6.43302">
        <ele>343.5</ele>
        <time>2013-06-11T08:22:28Z</time>
      </trkpt>
      <trkpt lat="43.59078" lon="6.43313">
        <ele>343.91</ele>
        <time>2013-06-11T08:22:33Z</time>
      </trkpt>
      <trkpt lat="43.59087" lon="6.43317">
        <ele>344.13</ele>
        <time>2013-06-11T08:22:37Z</time>
      </trkpt>
      <trkpt lat="43.59094" lon="6.43308">
        <ele>344.53</ele>
        <time>2013-06-11T08:22:43Z</time>
      </trkpt>
      <trkpt lat="43.59102" lon="6.43316">
        <ele>344.82</ele>
        <time>2013-06-11T08:23:10Z</time>
      </trkpt>
      <trkpt lat="43.59093" lon="6.43329">
        <ele>345.25</ele>
        <time>2013-06-11T08:23:31Z</time>
      </trkpt>
      <trkpt lat="43.5908" lon="6.43335">
        <ele>345.38</ele>
        <time>2013-06-11T08:23:35Z</time>
      </trkpt>
      <trkpt lat="43.59072" lon="6.43342">
        <ele>345.62</ele>
        <time>2013-06-11T08:23:45Z</time>
      </trkpt>
      <trkpt lat="43.59071" lon="6.43359">
        <ele>345.94</ele>
        <time>2013-06-11T08:23:55Z</time>
      </trkpt>
      <trkpt lat="43.59077" lon="6.43372">
        <ele>346.54</ele>
        <time>2013-06-11T08:24:02Z</time>
      </trkpt>
      <trkpt lat="43.59076" lon="6.43384">
        <ele>346.8</ele>
        <time>2013-06-11T08:24:18Z</time>
      </trkpt>
      <trkpt lat="43.59084" lon="6.43398">
        <ele>350.57</ele>
        <time>2013-06-11T08:24:57Z</time>
      </trkpt>
      <trkpt lat="43.59091" lon="6.43406">
        <ele>351.82</ele>
        <time>2013-06-11T08:25:03Z</time>
      </trkpt>
      <trkpt lat="43.59096" lon="6.43417">
        <ele>353.15</ele>
        <time>2013-06-11T08:25:11Z</time>
      </trkpt>
      <trkpt lat="43.59103" lon="6.43424">
        <ele>354.48</ele>
        <time>2013-06-11T08:25:18Z</time>
      </trkpt>
      <trkpt lat="43.59111" lon="6.43431">
        <ele>356.91</ele>
        <time>2013-06-11T08:26:01Z</time>
      </trkpt>
      <trkpt lat="43.59118" lon="6.4344">
        <ele>357.12</ele>
        <time>2013-06-11T08:26:13Z</time>
      </trkpt>
      <trkpt lat="43.59125" lon="6.43449">
        <ele>357.47</ele>
        <time>2013-06-11T08:26:23Z</time>
      </trkpt>
      <trkpt lat="43.5913" lon="6.43459">
        <ele>358.19</ele>
        <time>2013-06-11T08:26:35Z</time>
      </trkpt>
      <trkpt lat="43.59138" lon="6.43467">
        <ele>359.15</ele>
        <time>2013-06-11T08:26:43Z</time>
      </trkpt>
      <trkpt lat="43.59143" lon="6.43479">
        <ele>360.64</ele>
        <time>2013-06-11T08:26:54Z</time>
      </trkpt>
      <trkpt lat="43.59147" lon="6.4349">
        <ele>361.82</ele>
        <time>2013-06-11T08:27:01Z</time>
      </trkpt>
      <trkpt lat="43.5915" lon="6.43504">
        <ele>362.16</ele>
        <time>2013-06-11T08:27:10Z</time>
      </trkpt>
      <trkpt lat="43.59153" lon="6.43517">
        <ele>361.96</ele>
        <time>2013-06-11T08:27:18Z</time>
      </trkpt>
      <trkpt lat="43.59155" lon="6.43534">
        <ele>362.38</ele>
        <time>2013-06-11T08:27:27Z</time>
      </trkpt>
      <trkpt lat="43.59157" lon="6.43548">
        <ele>363.96</ele>
        <time>2013-06-11T08:27:39Z</time>
      </trkpt>
      <trkpt lat="43.59164" lon="6.43559">
        <ele>367.18</ele>
        <time>2013-06-11T08:27:53Z</time>
      </trkpt>
      <trkpt lat="43.59173" lon="6.43572">
        <ele>368.78</ele>
        <time>2013-06-11T08:28:08Z</time>
      </trkpt>
      <trkpt lat="43.59175" lon="6.43589">
        <ele>370.02</ele>
        <time>2013-06-11T08:28:16Z</time>
      </trkpt>
      <trkpt lat="43.5918" lon="6.43601">
        <ele>371.05</ele>
        <time>2013-06-11T08:28:22Z</time>
      </trkpt>
      <trkpt lat="43.59189" lon="6.43612">
        <ele>372.08</ele>
        <time>2013-06-11T08:28:31Z</time>
      </trkpt>
      <trkpt lat="43.59197" lon="6.4362">
        <ele>372.83</ele>
        <time>2013-06-11T08:28:37Z</time>
      </trkpt>
      <trkpt lat="43.59205" lon="6.43625">
        <ele>373.27</ele>
        <time>2013-06-11T08:28:42Z</time>
      </trkpt>
      <trkpt lat="43.59193" lon="6.43621">
        <ele>374.16</ele>
        <time>2013-06-11T08:28:54Z</time>
      </trkpt>
      <trkpt lat="43.59189" lon="6.43609">
        <ele>374.48</ele>
        <time>2013-06-11T08:29:09Z</time>
      </trkpt>
      <trkpt lat="43.59196" lon="6.43621">
        <ele>373.91</ele>
        <time>2013-06-11T08:29:32Z</time>
      </trkpt>
      <trkpt lat="43.59205" lon="6.43631">
        <ele>372.8</ele>
        <time>2013-06-11T08:29:41Z</time>
      </trkpt>
      <trkpt lat="43.59212" lon="6.4364">
        <ele>370.21</ele>
        <time>2013-06-11T08:30:02Z</time>
      </trkpt>
      <trkpt lat="43.59221" lon="6.43646">
        <ele>369.69</ele>
        <time>2013-06-11T08:30:26Z</time>
      </trkpt>
      <trkpt lat="43.59234" lon="6.43662">
        <ele>369.35</ele>
        <time>2013-06-11T08:30:32Z</time>
      </trkpt>
      <trkpt lat="43.59238" lon="6.43676">
        <ele>368.98</ele>
        <time>2013-06-11T08:30:38Z</time>
      </trkpt>
      <trkpt lat="43.59244" lon="6.4369">
        <ele>368.99</ele>
        <time>2013-06-11T08:30:50Z</time>
      </trkpt>
      <trkpt lat="43.59247" lon="6.43705">
        <ele>369.68</ele>
        <time>2013-06-11T08:31:17Z</time>
      </trkpt>
      <trkpt lat="43.59254" lon="6.43713">
        <ele>369.19</ele>
        <time>2013-06-11T08:31:26Z</time>
      </trkpt>
      <trkpt lat="43.59261" lon="6.4373">
        <ele>368.56</ele>
        <time>2013-06-11T08:31:38Z</time>
      </trkpt>
      <trkpt lat="43.59265" lon="6.43743">
        <ele>367.77</ele>
        <time>2013-06-11T08:31:44Z</time>
      </trkpt>
      <trkpt lat="43.59268" lon="6.43755">
        <ele>366.85</ele>
        <time>2013-06-11T08:31:50Z</time>
      </trkpt>
      <trkpt lat="43.59272" lon="6.43766">
        <ele>365.69</ele>
        <time>2013-06-11T08:31:56Z</time>
      </trkpt>
      <trkpt lat="43.59276" lon="6.43781">
        <ele>363.64</ele>
        <time>2013-06-11T08:32:05Z</time>
      </trkpt>
      <trkpt lat="43.59284" lon="6.43791">
        <ele>363.09</ele>
        <time>2013-06-11T08:32:11Z</time>
      </trkpt>
      <trkpt lat="43.59295" lon="6.43798">
        <ele>363.38</ele>
        <time>2013-06-11T08:32:17Z</time>
      </trkpt>
      <trkpt lat="43.59302" lon="6.4381">
        <ele>365.09</ele>
        <time>2013-06-11T08:32:26Z</time>
      </trkpt>
      <trkpt lat="43.59305" lon="6.43823">
        <ele>367.34</ele>
        <time>2013-06-11T08:32:35Z</time>
      </trkpt>
      <trkpt lat="43.5931" lon="6.43837">
        <ele>370.17</ele>
        <time>2013-06-11T08:32:47Z</time>
      </trkpt>
      <trkpt lat="43.59317" lon="6.43849">
        <ele>371.95</ele>
        <time>2013-06-11T08:32:56Z</time>
      </trkpt>
      <trkpt lat="43.59325" lon="6.43856">
        <ele>373.41</ele>
        <time>2013-06-11T08:33:08Z</time>
      </trkpt>
      <trkpt lat="43.59328" lon="6.4387">
        <ele>373.94</ele>
        <time>2013-06-11T08:33:17Z</time>
      </trkpt>
      <trkpt lat="43.59322" lon="6.4388">
        <ele>375.05</ele>
        <time>2013-06-11T08:34:35Z</time>
      </trkpt>
      <trkpt lat="43.59313" lon="6.43887">
        <ele>372.54</ele>
        <time>2013-06-11T08:35:08Z</time>
      </trkpt>
      <trkpt lat="43.59322" lon="6.43888">
        <ele>371.87</ele>
        <time>2013-06-11T08:35:17Z</time>
      </trkpt>
      <trkpt lat="43.59335" lon="6.43893">
        <ele>371.43</ele>
        <time>2013-06-11T08:35:47Z</time>
      </trkpt>
      <trkpt lat="43.59343" lon="6.43905">
        <ele>371.75</ele>
        <time>2013-06-11T08:36:29Z</time>
      </trkpt>
      <trkpt lat="43.5934" lon="6.4392">
        <ele>371.43</ele>
        <time>2013-06-11T08:36:38Z</time>
      </trkpt>
      <trkpt lat="43.59341" lon="6.43933">
        <ele>371.48</ele>
        <time>2013-06-11T08:36:47Z</time>
      </trkpt>
      <trkpt lat="43.59346" lon="6.4395">
        <ele>371.82</ele>
        <time>2013-06-11T08:36:56Z</time>
      </trkpt>
      <trkpt lat="43.59348" lon="6.43966">
        <ele>372.06</ele>
        <time>2013-06-11T08:37:05Z</time>
      </trkpt>
      <trkpt lat="43.5935" lon="6.43983">
        <ele>371.66</ele>
        <time>2013-06-11T08:37:14Z</time>
      </trkpt>
      <trkpt lat="43.59351" lon="6.44002">
        <ele>371.24</ele>
        <time>2013-06-11T08:37:23Z</time>
      </trkpt>
      <trkpt lat="43.59356" lon="6.44013">
        <ele>371.58</ele>
        <time>2013-06-11T08:37:32Z</time>
      </trkpt>
      <trkpt lat="43.59364" lon="6.44024">
        <ele>372.47</ele>
        <time>2013-06-11T08:37:41Z</time>
      </trkpt>
      <trkpt lat="43.5937" lon="6.44034">
        <ele>373.41</ele>
        <time>2013-06-11T08:37:59Z</time>
      </trkpt>
      <trkpt lat="43.59367" lon="6.44016">
        <ele>373.79</ele>
        <time>2013-06-11T08:38:23Z</time>
      </trkpt>
      <trkpt lat="43.59367" lon="6.44001">
        <ele>372.73</ele>
        <time>2013-06-11T08:38:32Z</time>
      </trkpt>
      <trkpt lat="43.5937" lon="6.44013">
        <ele>370.56</ele>
        <time>2013-06-11T08:39:05Z</time>
      </trkpt>
      <trkpt lat="43.59378" lon="6.44031">
        <ele>370.49</ele>
        <time>2013-06-11T08:39:23Z</time>
      </trkpt>
      <trkpt lat="43.59387" lon="6.4404">
        <ele>370.56</ele>
        <time>2013-06-11T08:39:29Z</time>
      </trkpt>
      <trkpt lat="43.59397" lon="6.4403">
        <ele>369.1</ele>
        <time>2013-06-11T08:39:53Z</time>
      </trkpt>
      <trkpt lat="43.59404" lon="6.4402">
        <ele>366.52</ele>
        <time>2013-06-11T08:40:14Z</time>
      </trkpt>
      <trkpt lat="43.59416" lon="6.44021">
        <ele>365.4</ele>
        <time>2013-06-11T08:40:32Z</time>
      </trkpt>
      <trkpt lat="43.59435" lon="6.4404">
        <ele>364.86</ele>
        <time>2013-06-11T08:40:44Z</time>
      </trkpt>
      <trkpt lat="43.59442" lon="6.44054">
        <ele>364.92</ele>
        <time>2013-06-11T08:40:47Z</time>
      </trkpt>
      <trkpt lat="43.59445" lon="6.44067">
        <ele>365.53</ele>
        <time>2013-06-11T08:40:53Z</time>
      </trkpt>
      <trkpt lat="43.59452" lon="6.44081">
        <ele>367.08</ele>
        <time>2013-06-11T08:41:02Z</time>
      </trkpt>
      <trkpt lat="43.5946" lon="6.44089">
        <ele>368.43</ele>
        <time>2013-06-11T08:41:08Z</time>
      </trkpt>
      <trkpt lat="43.59469" lon="6.44098">
        <ele>370.06</ele>
        <time>2013-06-11T08:41:17Z</time>
      </trkpt>
      <trkpt lat="43.59476" lon="6.4411">
        <ele>371.41</ele>
        <time>2013-06-11T08:41:26Z</time>
      </trkpt>
      <trkpt lat="43.59482" lon="6.44125">
        <ele>372.92</ele>
        <time>2013-06-11T08:41:35Z</time>
      </trkpt>
      <trkpt lat="43.59487" lon="6.44139">
        <ele>374.53</ele>
        <time>2013-06-11T08:41:44Z</time>
      </trkpt>
      <trkpt lat="43.59493" lon="6.44124">
        <ele>376.84</ele>
        <time>2013-06-11T08:42:02Z</time>
      </trkpt>
      <trkpt lat="43.59505" lon="6.44125">
        <ele>377.95</ele>
        <time>2013-06-11T08:42:11Z</time>
      </trkpt>
      <trkpt lat="43.59517" lon="6.44135">
        <ele>378.98</ele>
        <time>2013-06-11T08:42:17Z</time>
      </trkpt>
      <trkpt lat="43.59523" lon="6.4415">
        <ele>380.25</ele>
        <time>2013-06-11T08:42:23Z</time>
      </trkpt>
      <trkpt lat="43.59511" lon="6.44161">
        <ele>382.97</ele>
        <time>2013-06-11T08:42:47Z</time>
      </trkpt>
      <trkpt lat="43.59511" lon="6.44176">
        <ele>383.85</ele>
        <time>2013-06-11T08:42:55Z</time>
      </trkpt>
      <trkpt lat="43.59516" lon="6.44188">
        <ele>384.74</ele>
        <time>2013-06-11T08:43:04Z</time>
      </trkpt>
      <trkpt lat="43.59522" lon="6.44197">
        <ele>385.11</ele>
        <time>2013-06-11T08:43:13Z</time>
      </trkpt>
      <trkpt lat="43.59529" lon="6.4421">
        <ele>385.62</ele>
        <time>2013-06-11T08:43:25Z</time>
      </trkpt>
      <trkpt lat="43.59535" lon="6.44222">
        <ele>385.47</ele>
        <time>2013-06-11T08:43:40Z</time>
      </trkpt>
      <trkpt lat="43.59536" lon="6.44238">
        <ele>384.35</ele>
        <time>2013-06-11T08:43:52Z</time>
      </trkpt>
      <trkpt lat="43.59539" lon="6.44252">
        <ele>382.96</ele>
        <time>2013-06-11T08:44:07Z</time>
      </trkpt>
      <trkpt lat="43.59544" lon="6.44265">
        <ele>381.89</ele>
        <time>2013-06-11T08:44:25Z</time>
      </trkpt>
      <trkpt lat="43.59554" lon="6.44274">
        <ele>381.72</ele>
        <time>2013-06-11T08:44:34Z</time>
      </trkpt>
      <trkpt lat="43.59562" lon="6.4428">
        <ele>381.17</ele>
        <time>2013-06-11T08:44:43Z</time>
      </trkpt>
      <trkpt lat="43.59571" lon="6.44289">
        <ele>380.64</ele>
        <time>2013-06-11T08:44:52Z</time>
      </trkpt>
      <trkpt lat="43.59577" lon="6.44298">
        <ele>380.53</ele>
        <time>2013-06-11T08:45:01Z</time>
      </trkpt>
      <trkpt lat="43.59583" lon="6.44307">
        <ele>380.92</ele>
        <time>2013-06-11T08:45:10Z</time>
      </trkpt>
      <trkpt lat="43.59592" lon="6.44316">
        <ele>380.94</ele>
        <time>2013-06-11T08:45:22Z</time>
      </trkpt>
      <trkpt lat="43.59599" lon="6.44329">
        <ele>380.42</ele>
        <time>2013-06-11T08:45:31Z</time>
      </trkpt>
      <trkpt lat="43.59607" lon="6.44341">
        <ele>379.53</ele>
        <time>2013-06-11T08:45:43Z</time>
      </trkpt>
      <trkpt lat="43.59611" lon="6.44352">
        <ele>378.94</ele>
        <time>2013-06-11T08:45:52Z</time>
      </trkpt>
      <trkpt lat="43.59616" lon="6.44364">
        <ele>378.46</ele>
        <time>2013-06-11T08:46:01Z</time>
      </trkpt>
      <trkpt lat="43.59623" lon="6.44375">
        <ele>378.31</ele>
        <time>2013-06-11T08:46:10Z</time>
      </trkpt>
      <trkpt lat="43.59626" lon="6.44389">
        <ele>378.14</ele>
        <time>2013-06-11T08:46:28Z</time>
      </trkpt>
      <trkpt lat="43.59628" lon="6.44402">
        <ele>377.91</ele>
        <time>2013-06-11T08:46:37Z</time>
      </trkpt>
      <trkpt lat="43.59627" lon="6.44418">
        <ele>377.26</ele>
        <time>2013-06-11T08:46:49Z</time>
      </trkpt>
      <trkpt lat="43.59635" lon="6.44441">
        <ele>377.61</ele>
        <time>2013-06-11T08:47:22Z</time>
      </trkpt>
      <trkpt lat="43.5964" lon="6.44457">
        <ele>378.11</ele>
        <time>2013-06-11T08:47:25Z</time>
      </trkpt>
      <trkpt lat="43.5964" lon="6.44472">
        <ele>378.72</ele>
        <time>2013-06-11T08:47:28Z</time>
      </trkpt>
      <trkpt lat="43.59634" lon="6.44487">
        <ele>379.45</ele>
        <time>2013-06-11T08:47:31Z</time>
      </trkpt>
      <trkpt lat="43.5963" lon="6.44499">
        <ele>380.25</ele>
        <time>2013-06-11T08:47:34Z</time>
      </trkpt>
      <trkpt lat="43.5963" lon="6.44512">
        <ele>381.99</ele>
        <time>2013-06-11T08:47:40Z</time>
      </trkpt>
      <trkpt lat="43.5964" lon="6.44511">
        <ele>385.02</ele>
        <time>2013-06-11T08:47:49Z</time>
      </trkpt>
      <trkpt lat="43.59651" lon="6.44511">
        <ele>387.8</ele>
        <time>2013-06-11T08:47:58Z</time>
      </trkpt>
      <trkpt lat="43.59647" lon="6.44525">
        <ele>392.38</ele>
        <time>2013-06-11T08:48:34Z</time>
      </trkpt>
      <trkpt lat="43.59638" lon="6.44534">
        <ele>391.99</ele>
        <time>2013-06-11T08:48:40Z</time>
      </trkpt>
      <trkpt lat="43.59623" lon="6.44545">
        <ele>390.59</ele>
        <time>2013-06-11T08:48:58Z</time>
      </trkpt>
      <trkpt lat="43.59618" lon="6.44558">
        <ele>389.62</ele>
        <time>2013-06-11T08:49:04Z</time>
      </trkpt>
      <trkpt lat="43.59616" lon="6.44573">
        <ele>387.86</ele>
        <time>2013-06-11T08:49:13Z</time>
      </trkpt>
      <trkpt lat="43.59614" lon="6.44587">
        <ele>386.76</ele>
        <time>2013-06-11T08:49:22Z</time>
      </trkpt>
      <trkpt lat="43.59611" lon="6.44603">
        <ele>386.45</ele>
        <time>2013-06-11T08:49:31Z</time>
      </trkpt>
      <trkpt lat="43.59605" lon="6.44615">
        <ele>386.2</ele>
        <time>2013-06-11T08:49:40Z</time>
      </trkpt>
      <trkpt lat="43.59597" lon="6.44625">
        <ele>385.81</ele>
        <time>2013-06-11T08:49:49Z</time>
      </trkpt>
      <trkpt lat="43.59593" lon="6.44638">
        <ele>386.58</ele>
        <time>2013-06-11T08:50:04Z</time>
      </trkpt>
      <trkpt lat="43.59586" lon="6.44646">
        <ele>387.74</ele>
        <time>2013-06-11T08:50:25Z</time>
      </trkpt>
      <trkpt lat="43.5959" lon="6.44646">
        <ele>387.18</ele>
        <time>2013-06-11T08:51:35Z</time>
      </trkpt>
      <trkpt lat="43.59581" lon="6.44656">
        <ele>387.76</ele>
        <time>2013-06-11T08:52:05Z</time>
      </trkpt>
      <trkpt lat="43.59573" lon="6.44664">
        <ele>389.58</ele>
        <time>2013-06-11T08:52:23Z</time>
      </trkpt>
      <trkpt lat="43.59565" lon="6.44671">
        <ele>389.15</ele>
        <time>2013-06-11T08:52:32Z</time>
      </trkpt>
      <trkpt lat="43.59573" lon="6.44679">
        <ele>386.33</ele>
        <time>2013-06-11T08:53:14Z</time>
      </trkpt>
      <trkpt lat="43.59563" lon="6.44685">
        <ele>386.55</ele>
        <time>2013-06-11T08:53:35Z</time>
      </trkpt>
      <trkpt lat="43.59557" lon="6.44699">
        <ele>387.22</ele>
        <time>2013-06-11T08:54:05Z</time>
      </trkpt>
      <trkpt lat="43.59555" lon="6.44711">
        <ele>388.31</ele>
        <time>2013-06-11T08:54:14Z</time>
      </trkpt>
      <trkpt lat="43.59548" lon="6.44727">
        <ele>389.82</ele>
        <time>2013-06-11T08:54:23Z</time>
      </trkpt>
      <trkpt lat="43.59544" lon="6.4474">
        <ele>390.91</ele>
        <time>2013-06-11T08:54:29Z</time>
      </trkpt>
      <trkpt lat="43.59531" lon="6.44733">
        <ele>392.86</ele>
        <time>2013-06-11T08:54:44Z</time>
      </trkpt>
      <trkpt lat="43.59522" lon="6.44729">
        <ele>394.64</ele>
        <time>2013-06-11T08:55:11Z</time>
      </trkpt>
      <trkpt lat="43.59524" lon="6.44746">
        <ele>395.2</ele>
        <time>2013-06-11T08:55:20Z</time>
      </trkpt>
      <trkpt lat="43.59531" lon="6.44756">
        <ele>395.35</ele>
        <time>2013-06-11T08:55:29Z</time>
      </trkpt>
      <trkpt lat="43.59532" lon="6.44771">
        <ele>395.4</ele>
        <time>2013-06-11T08:55:41Z</time>
      </trkpt>
      <trkpt lat="43.59527" lon="6.44784">
        <ele>395.13</ele>
        <time>2013-06-11T08:55:50Z</time>
      </trkpt>
      <trkpt lat="43.59526" lon="6.448">
        <ele>394.36</ele>
        <time>2013-06-11T08:55:59Z</time>
      </trkpt>
      <trkpt lat="43.59518" lon="6.44811">
        <ele>392.95</ele>
        <time>2013-06-11T08:56:17Z</time>
      </trkpt>
      <trkpt lat="43.59511" lon="6.44819">
        <ele>393.52</ele>
        <time>2013-06-11T08:56:29Z</time>
      </trkpt>
      <trkpt lat="43.59503" lon="6.44831">
        <ele>394.42</ele>
        <time>2013-06-11T08:56:44Z</time>
      </trkpt>
      <trkpt lat="43.59497" lon="6.44846">
        <ele>396.02</ele>
        <time>2013-06-11T08:57:05Z</time>
      </trkpt>
      <trkpt lat="43.59487" lon="6.44847">
        <ele>396.16</ele>
        <time>2013-06-11T08:57:35Z</time>
      </trkpt>
      <trkpt lat="43.59496" lon="6.44839">
        <ele>396.59</ele>
        <time>2013-06-11T08:57:44Z</time>
      </trkpt>
      <trkpt lat="43.59487" lon="6.44836">
        <ele>398.92</ele>
        <time>2013-06-11T08:58:29Z</time>
      </trkpt>
      <trkpt lat="43.59478" lon="6.4484">
        <ele>399.77</ele>
        <time>2013-06-11T08:58:59Z</time>
      </trkpt>
      <trkpt lat="43.59488" lon="6.44841">
        <ele>401.25</ele>
        <time>2013-06-11T08:59:32Z</time>
      </trkpt>
      <trkpt lat="43.59497" lon="6.44837">
        <ele>402.62</ele>
        <time>2013-06-11T09:02:35Z</time>
      </trkpt>
      <trkpt lat="43.59503" lon="6.44826">
        <ele>406.16</ele>
        <time>2013-06-11T09:03:20Z</time>
      </trkpt>
      <trkpt lat="43.59492" lon="6.44819">
        <ele>405.35</ele>
        <time>2013-06-11T09:03:35Z</time>
      </trkpt>
      <trkpt lat="43.59503" lon="6.44817">
        <ele>400.6</ele>
        <time>2013-06-11T09:04:14Z</time>
      </trkpt>
      <trkpt lat="43.59512" lon="6.44821">
        <ele>398.66</ele>
        <time>2013-06-11T09:04:41Z</time>
      </trkpt>
      <trkpt lat="43.59516" lon="6.44808">
        <ele>397.83</ele>
        <time>2013-06-11T09:05:05Z</time>
      </trkpt>
      <trkpt lat="43.59526" lon="6.44799">
        <ele>399.01</ele>
        <time>2013-06-11T09:05:32Z</time>
      </trkpt>
      <trkpt lat="43.59533" lon="6.44788">
        <ele>399.16</ele>
        <time>2013-06-11T09:05:47Z</time>
      </trkpt>
      <trkpt lat="43.59538" lon="6.44774">
        <ele>399.68</ele>
        <time>2013-06-11T09:06:02Z</time>
      </trkpt>
      <trkpt lat="43.59543" lon="6.44762">
        <ele>399.81</ele>
        <time>2013-06-11T09:06:14Z</time>
      </trkpt>
      <trkpt lat="43.59551" lon="6.44751">
        <ele>400.37</ele>
        <time>2013-06-11T09:06:29Z</time>
      </trkpt>
      <trkpt lat="43.59554" lon="6.44739">
        <ele>401.19</ele>
        <time>2013-06-11T09:06:38Z</time>
      </trkpt>
      <trkpt lat="43.59559" lon="6.44726">
        <ele>402.02</ele>
        <time>2013-06-11T09:06:47Z</time>
      </trkpt>
      <trkpt lat="43.59563" lon="6.44715">
        <ele>402.49</ele>
        <time>2013-06-11T09:06:59Z</time>
      </trkpt>
      <trkpt lat="43.59567" lon="6.44703">
        <ele>401.99</ele>
        <time>2013-06-11T09:07:14Z</time>
      </trkpt>
      <trkpt lat="43.59575" lon="6.44696">
        <ele>399.51</ele>
        <time>2013-06-11T09:07:47Z</time>
      </trkpt>
      <trkpt lat="43.59567" lon="6.44689">
        <ele>397.29</ele>
        <time>2013-06-11T09:09:47Z</time>
      </trkpt>
      <trkpt lat="43.59555" lon="6.44689">
        <ele>396.81</ele>
        <time>2013-06-11T09:10:11Z</time>
      </trkpt>
      <trkpt lat="43.59561" lon="6.44673">
        <ele>395.77</ele>
        <time>2013-06-11T09:10:23Z</time>
      </trkpt>
      <trkpt lat="43.5957" lon="6.4466">
        <ele>394.39</ele>
        <time>2013-06-11T09:10:32Z</time>
      </trkpt>
      <trkpt lat="43.59576" lon="6.44651">
        <ele>393.54</ele>
        <time>2013-06-11T09:10:38Z</time>
      </trkpt>
      <trkpt lat="43.59589" lon="6.44653">
        <ele>390.8</ele>
        <time>2013-06-11T09:11:05Z</time>
      </trkpt>
      <trkpt lat="43.59595" lon="6.44637">
        <ele>390.16</ele>
        <time>2013-06-11T09:11:14Z</time>
      </trkpt>
      <trkpt lat="43.596" lon="6.44625">
        <ele>389.99</ele>
        <time>2013-06-11T09:11:20Z</time>
      </trkpt>
      <trkpt lat="43.59604" lon="6.44614">
        <ele>389.78</ele>
        <time>2013-06-11T09:11:26Z</time>
      </trkpt>
      <trkpt lat="43.59613" lon="6.44605">
        <ele>389.71</ele>
        <time>2013-06-11T09:11:32Z</time>
      </trkpt>
      <trkpt lat="43.59618" lon="6.44593">
        <ele>389.83</ele>
        <time>2013-06-11T09:12:05Z</time>
      </trkpt>
      <trkpt lat="43.59618" lon="6.44575">
        <ele>389.68</ele>
        <time>2013-06-11T09:12:20Z</time>
      </trkpt>
      <trkpt lat="43.59618" lon="6.44557">
        <ele>389.57</ele>
        <time>2013-06-11T09:12:29Z</time>
      </trkpt>
      <trkpt lat="43.59618" lon="6.44541">
        <ele>389.35</ele>
        <time>2013-06-11T09:12:35Z</time>
      </trkpt>
      <trkpt lat="43.59618" lon="6.44525">
        <ele>388.65</ele>
        <time>2013-06-11T09:12:44Z</time>
      </trkpt>
      <trkpt lat="43.59615" lon="6.44513">
        <ele>388.02</ele>
        <time>2013-06-11T09:12:53Z</time>
      </trkpt>
      <trkpt lat="43.59609" lon="6.44501">
        <ele>387.66</ele>
        <time>2013-06-11T09:13:02Z</time>
      </trkpt>
      <trkpt lat="43.59608" lon="6.44484">
        <ele>387.39</ele>
        <time>2013-06-11T09:13:11Z</time>
      </trkpt>
      <trkpt lat="43.59606" lon="6.44468">
        <ele>386.53</ele>
        <time>2013-06-11T09:13:26Z</time>
      </trkpt>
      <trkpt lat="43.59598" lon="6.4446">
        <ele>385.7</ele>
        <time>2013-06-11T09:13:32Z</time>
      </trkpt>
      <trkpt lat="43.59588" lon="6.44455">
        <ele>384.86</ele>
        <time>2013-06-11T09:13:38Z</time>
      </trkpt>
      <trkpt lat="43.59577" lon="6.4445">
        <ele>384.32</ele>
        <time>2013-06-11T09:13:44Z</time>
      </trkpt>
      <trkpt lat="43.59568" lon="6.44451">
        <ele>384.05</ele>
        <time>2013-06-11T09:13:50Z</time>
      </trkpt>
      <trkpt lat="43.59558" lon="6.44453">
        <ele>383.88</ele>
        <time>2013-06-11T09:13:56Z</time>
      </trkpt>
      <trkpt lat="43.59548" lon="6.4445">
        <ele>383.53</ele>
        <time>2013-06-11T09:14:02Z</time>
      </trkpt>
      <trkpt lat="43.59554" lon="6.44438">
        <ele>381.16</ele>
        <time>2013-06-11T09:14:17Z</time>
      </trkpt>
      <trkpt lat="43.59555" lon="6.44424">
        <ele>379.5</ele>
        <time>2013-06-11T09:14:26Z</time>
      </trkpt>
      <trkpt lat="43.59551" lon="6.44412">
        <ele>378.38</ele>
        <time>2013-06-11T09:14:32Z</time>
      </trkpt>
      <trkpt lat="43.59547" lon="6.44397">
        <ele>377.34</ele>
        <time>2013-06-11T09:14:38Z</time>
      </trkpt>
      <trkpt lat="43.59587" lon="6.44394">
        <ele>376.71</ele>
        <time>2013-06-11T09:14:44Z</time>
      </trkpt>
      <trkpt lat="43.59597" lon="6.44393">
        <ele>376.63</ele>
        <time>2013-06-11T09:14:50Z</time>
      </trkpt>
      <trkpt lat="43.59608" lon="6.44396">
        <ele>377.24</ele>
        <time>2013-06-11T09:15:02Z</time>
      </trkpt>
      <trkpt lat="43.59611" lon="6.44384">
        <ele>377.89</ele>
        <time>2013-06-11T09:15:26Z</time>
      </trkpt>
      <trkpt lat="43.59604" lon="6.44375">
        <ele>378.27</ele>
        <time>2013-06-11T09:15:35Z</time>
      </trkpt>
      <trkpt lat="43.59598" lon="6.44362">
        <ele>379.41</ele>
        <time>2013-06-11T09:15:53Z</time>
      </trkpt>
      <trkpt lat="43.59592" lon="6.4435">
        <ele>380.24</ele>
        <time>2013-06-11T09:16:02Z</time>
      </trkpt>
      <trkpt lat="43.59595" lon="6.44336">
        <ele>380.66</ele>
        <time>2013-06-11T09:16:11Z</time>
      </trkpt>
      <trkpt lat="43.59602" lon="6.44327">
        <ele>381.02</ele>
        <time>2013-06-11T09:16:34Z</time>
      </trkpt>
      <trkpt lat="43.59595" lon="6.44317">
        <ele>381.53</ele>
        <time>2013-06-11T09:16:55Z</time>
      </trkpt>
      <trkpt lat="43.59601" lon="6.44306">
        <ele>384.41</ele>
        <time>2013-06-11T09:17:19Z</time>
      </trkpt>
      <trkpt lat="43.5959" lon="6.44305">
        <ele>390.07</ele>
        <time>2013-06-11T09:17:46Z</time>
      </trkpt>
      <trkpt lat="43.59581" lon="6.44305">
        <ele>390.89</ele>
        <time>2013-06-11T09:18:10Z</time>
      </trkpt>
      <trkpt lat="43.59574" lon="6.44294">
        <ele>390.98</ele>
        <time>2013-06-11T09:18:22Z</time>
      </trkpt>
      <trkpt lat="43.59568" lon="6.44285">
        <ele>390.68</ele>
        <time>2013-06-11T09:18:31Z</time>
      </trkpt>
      <trkpt lat="43.5956" lon="6.44274">
        <ele>389.86</ele>
        <time>2013-06-11T09:18:40Z</time>
      </trkpt>
      <trkpt lat="43.59551" lon="6.44264">
        <ele>388.28</ele>
        <time>2013-06-11T09:18:49Z</time>
      </trkpt>
      <trkpt lat="43.59541" lon="6.44254">
        <ele>386.43</ele>
        <time>2013-06-11T09:18:58Z</time>
      </trkpt>
      <trkpt lat="43.59536" lon="6.4424">
        <ele>385.2</ele>
        <time>2013-06-11T09:19:09Z</time>
      </trkpt>
      <trkpt lat="43.59529" lon="6.44229">
        <ele>384.7</ele>
        <time>2013-06-11T09:19:15Z</time>
      </trkpt>
      <trkpt lat="43.59522" lon="6.44222">
        <ele>384.34</ele>
        <time>2013-06-11T09:19:24Z</time>
      </trkpt>
      <trkpt lat="43.59518" lon="6.44208">
        <ele>383.81</ele>
        <time>2013-06-11T09:19:33Z</time>
      </trkpt>
      <trkpt lat="43.5951" lon="6.44195">
        <ele>383.47</ele>
        <time>2013-06-11T09:19:42Z</time>
      </trkpt>
      <trkpt lat="43.59503" lon="6.44184">
        <ele>383.16</ele>
        <time>2013-06-11T09:19:51Z</time>
      </trkpt>
      <trkpt lat="43.59494" lon="6.44173">
        <ele>382.75</ele>
        <time>2013-06-11T09:20:00Z</time>
      </trkpt>
      <trkpt lat="43.59492" lon="6.44159">
        <ele>381.84</ele>
        <time>2013-06-11T09:20:09Z</time>
      </trkpt>
      <trkpt lat="43.59485" lon="6.44148">
        <ele>381.08</ele>
        <time>2013-06-11T09:20:15Z</time>
      </trkpt>
      <trkpt lat="43.59482" lon="6.44136">
        <ele>380.48</ele>
        <time>2013-06-11T09:20:21Z</time>
      </trkpt>
      <trkpt lat="43.59476" lon="6.44126">
        <ele>379.7</ele>
        <time>2013-06-11T09:20:30Z</time>
      </trkpt>
      <trkpt lat="43.59469" lon="6.44118">
        <ele>379.23</ele>
        <time>2013-06-11T09:20:36Z</time>
      </trkpt>
      <trkpt lat="43.5946" lon="6.4411">
        <ele>378.43</ele>
        <time>2013-06-11T09:20:45Z</time>
      </trkpt>
      <trkpt lat="43.59451" lon="6.44108">
        <ele>377.96</ele>
        <time>2013-06-11T09:21:00Z</time>
      </trkpt>
      <trkpt lat="43.59457" lon="6.44094">
        <ele>378.48</ele>
        <time>2013-06-11T09:22:00Z</time>
      </trkpt>
      <trkpt lat="43.5945" lon="6.44082">
        <ele>378.33</ele>
        <time>2013-06-11T09:22:09Z</time>
      </trkpt>
      <trkpt lat="43.59443" lon="6.44072">
        <ele>378.05</ele>
        <time>2013-06-11T09:22:15Z</time>
      </trkpt>
      <trkpt lat="43.59433" lon="6.44062">
        <ele>377.12</ele>
        <time>2013-06-11T09:22:27Z</time>
      </trkpt>
      <trkpt lat="43.59422" lon="6.44052">
        <ele>376.24</ele>
        <time>2013-06-11T09:22:36Z</time>
      </trkpt>
      <trkpt lat="43.59413" lon="6.44048">
        <ele>375.79</ele>
        <time>2013-06-11T09:22:42Z</time>
      </trkpt>
      <trkpt lat="43.59401" lon="6.4404">
        <ele>375.49</ele>
        <time>2013-06-11T09:22:51Z</time>
      </trkpt>
      <trkpt lat="43.59387" lon="6.4404">
        <ele>375.18</ele>
        <time>2013-06-11T09:23:00Z</time>
      </trkpt>
      <trkpt lat="43.59376" lon="6.44038">
        <ele>375.03</ele>
        <time>2013-06-11T09:23:06Z</time>
      </trkpt>
      <trkpt lat="43.59367" lon="6.4403">
        <ele>374.76</ele>
        <time>2013-06-11T09:23:15Z</time>
      </trkpt>
      <trkpt lat="43.5936" lon="6.44019">
        <ele>374.34</ele>
        <time>2013-06-11T09:23:24Z</time>
      </trkpt>
      <trkpt lat="43.59356" lon="6.44005">
        <ele>373.81</ele>
        <time>2013-06-11T09:23:33Z</time>
      </trkpt>
      <trkpt lat="43.59354" lon="6.43991">
        <ele>373.18</ele>
        <time>2013-06-11T09:24:15Z</time>
      </trkpt>
      <trkpt lat="43.5935" lon="6.43977">
        <ele>373.24</ele>
        <time>2013-06-11T09:24:27Z</time>
      </trkpt>
      <trkpt lat="43.59347" lon="6.43963">
        <ele>373.22</ele>
        <time>2013-06-11T09:24:39Z</time>
      </trkpt>
      <trkpt lat="43.59346" lon="6.4395">
        <ele>372.5</ele>
        <time>2013-06-11T09:24:51Z</time>
      </trkpt>
      <trkpt lat="43.59344" lon="6.43937">
        <ele>371.77</ele>
        <time>2013-06-11T09:25:03Z</time>
      </trkpt>
      <trkpt lat="43.59343" lon="6.43923">
        <ele>370.62</ele>
        <time>2013-06-11T09:25:15Z</time>
      </trkpt>
      <trkpt lat="43.59341" lon="6.43908">
        <ele>369.92</ele>
        <time>2013-06-11T09:25:30Z</time>
      </trkpt>
      <trkpt lat="43.59336" lon="6.43895">
        <ele>369.88</ele>
        <time>2013-06-11T09:25:45Z</time>
      </trkpt>
      <trkpt lat="43.59335" lon="6.43881">
        <ele>370.64</ele>
        <time>2013-06-11T09:25:57Z</time>
      </trkpt>
      <trkpt lat="43.59331" lon="6.43869">
        <ele>372.41</ele>
        <time>2013-06-11T09:26:24Z</time>
      </trkpt>
      <trkpt lat="43.59329" lon="6.43857">
        <ele>369.79</ele>
        <time>2013-06-11T09:27:12Z</time>
      </trkpt>
      <trkpt lat="43.59334" lon="6.43845">
        <ele>369.98</ele>
        <time>2013-06-11T09:27:45Z</time>
      </trkpt>
      <trkpt lat="43.59337" lon="6.4383">
        <ele>370.09</ele>
        <time>2013-06-11T09:27:54Z</time>
      </trkpt>
      <trkpt lat="43.59323" lon="6.43826">
        <ele>370.3</ele>
        <time>2013-06-11T09:28:03Z</time>
      </trkpt>
      <trkpt lat="43.59312" lon="6.43818">
        <ele>370.62</ele>
        <time>2013-06-11T09:28:09Z</time>
      </trkpt>
      <trkpt lat="43.59303" lon="6.43811">
        <ele>370.8</ele>
        <time>2013-06-11T09:28:15Z</time>
      </trkpt>
      <trkpt lat="43.59295" lon="6.43802">
        <ele>370.4</ele>
        <time>2013-06-11T09:28:24Z</time>
      </trkpt>
      <trkpt lat="43.59286" lon="6.43793">
        <ele>369.94</ele>
        <time>2013-06-11T09:28:36Z</time>
      </trkpt>
      <trkpt lat="43.59276" lon="6.43788">
        <ele>369.14</ele>
        <time>2013-06-11T09:28:48Z</time>
      </trkpt>
      <trkpt lat="43.59269" lon="6.43777">
        <ele>368.87</ele>
        <time>2013-06-11T09:28:57Z</time>
      </trkpt>
      <trkpt lat="43.59263" lon="6.43761">
        <ele>368.91</ele>
        <time>2013-06-11T09:29:06Z</time>
      </trkpt>
      <trkpt lat="43.5926" lon="6.43748">
        <ele>368.74</ele>
        <time>2013-06-11T09:29:15Z</time>
      </trkpt>
      <trkpt lat="43.59257" lon="6.43736">
        <ele>368.53</ele>
        <time>2013-06-11T09:29:24Z</time>
      </trkpt>
      <trkpt lat="43.59215" lon="6.4365">
        <ele>368.75</ele>
        <time>2013-06-11T09:30:33Z</time>
      </trkpt>
      <trkpt lat="43.59209" lon="6.4364">
        <ele>368.66</ele>
        <time>2013-06-11T09:30:42Z</time>
      </trkpt>
      <trkpt lat="43.59201" lon="6.43629">
        <ele>368.47</ele>
        <time>2013-06-11T09:30:54Z</time>
      </trkpt>
      <trkpt lat="43.59193" lon="6.43622">
        <ele>368.53</ele>
        <time>2013-06-11T09:31:03Z</time>
      </trkpt>
      <trkpt lat="43.59184" lon="6.43612">
        <ele>368.81</ele>
        <time>2013-06-11T09:31:12Z</time>
      </trkpt>
      <trkpt lat="43.59177" lon="6.43598">
        <ele>368.86</ele>
        <time>2013-06-11T09:31:21Z</time>
      </trkpt>
      <trkpt lat="43.59171" lon="6.43584">
        <ele>368.78</ele>
        <time>2013-06-11T09:31:30Z</time>
      </trkpt>
      <trkpt lat="43.59167" lon="6.43569">
        <ele>368.83</ele>
        <time>2013-06-11T09:31:39Z</time>
      </trkpt>
      <trkpt lat="43.59161" lon="6.43556">
        <ele>369.23</ele>
        <time>2013-06-11T09:31:54Z</time>
      </trkpt>
      <trkpt lat="43.59156" lon="6.43546">
        <ele>369.18</ele>
        <time>2013-06-11T09:32:03Z</time>
      </trkpt>
      <trkpt lat="43.59152" lon="6.43534">
        <ele>369.22</ele>
        <time>2013-06-11T09:32:12Z</time>
      </trkpt>
      <trkpt lat="43.59149" lon="6.43518">
        <ele>369.47</ele>
        <time>2013-06-11T09:32:24Z</time>
      </trkpt>
      <trkpt lat="43.59147" lon="6.43504">
        <ele>369.86</ele>
        <time>2013-06-11T09:32:36Z</time>
      </trkpt>
      <trkpt lat="43.59147" lon="6.43489">
        <ele>370.07</ele>
        <time>2013-06-11T09:32:48Z</time>
      </trkpt>
      <trkpt lat="43.59147" lon="6.43474">
        <ele>370.36</ele>
        <time>2013-06-11T09:33:00Z</time>
      </trkpt>
      <trkpt lat="43.59142" lon="6.43462">
        <ele>369.79</ele>
        <time>2013-06-11T09:33:12Z</time>
      </trkpt>
      <trkpt lat="43.59137" lon="6.43451">
        <ele>368.53</ele>
        <time>2013-06-11T09:33:24Z</time>
      </trkpt>
      <trkpt lat="43.5913" lon="6.43439">
        <ele>367.01</ele>
        <time>2013-06-11T09:33:36Z</time>
      </trkpt>
      <trkpt lat="43.59121" lon="6.43429">
        <ele>364.99</ele>
        <time>2013-06-11T09:33:48Z</time>
      </trkpt>
      <trkpt lat="43.59111" lon="6.43421">
        <ele>363.49</ele>
        <time>2013-06-11T09:33:57Z</time>
      </trkpt>
      <trkpt lat="43.59101" lon="6.43414">
        <ele>361.15</ele>
        <time>2013-06-11T09:34:12Z</time>
      </trkpt>
      <trkpt lat="43.59094" lon="6.43404">
        <ele>360.57</ele>
        <time>2013-06-11T09:34:21Z</time>
      </trkpt>
      <trkpt lat="43.59089" lon="6.43392">
        <ele>360.03</ele>
        <time>2013-06-11T09:34:30Z</time>
      </trkpt>
      <trkpt lat="43.59086" lon="6.43378">
        <ele>359.84</ele>
        <time>2013-06-11T09:34:42Z</time>
      </trkpt>
      <trkpt lat="43.59081" lon="6.43364">
        <ele>359.34</ele>
        <time>2013-06-11T09:34:54Z</time>
      </trkpt>
      <trkpt lat="43.59074" lon="6.4335">
        <ele>357.93</ele>
        <time>2013-06-11T09:35:06Z</time>
      </trkpt>
      <trkpt lat="43.59069" lon="6.43337">
        <ele>357.3</ele>
        <time>2013-06-11T09:35:18Z</time>
      </trkpt>
      <trkpt lat="43.59063" lon="6.43321">
        <ele>356.98</ele>
        <time>2013-06-11T09:35:35Z</time>
      </trkpt>
      <trkpt lat="43.59059" lon="6.43306">
        <ele>356.05</ele>
        <time>2013-06-11T09:35:47Z</time>
      </trkpt>
      <trkpt lat="43.59056" lon="6.4329">
        <ele>354.71</ele>
        <time>2013-06-11T09:35:59Z</time>
      </trkpt>
      <trkpt lat="43.59056" lon="6.43277">
        <ele>353.76</ele>
        <time>2013-06-11T09:36:11Z</time>
      </trkpt>
      <trkpt lat="43.59055" lon="6.43264">
        <ele>353.12</ele>
        <time>2013-06-11T09:36:20Z</time>
      </trkpt>
      <trkpt lat="43.59052" lon="6.43252">
        <ele>352.82</ele>
        <time>2013-06-11T09:36:29Z</time>
      </trkpt>
      <trkpt lat="43.59051" lon="6.43239">
        <ele>353.12</ele>
        <time>2013-06-11T09:36:41Z</time>
      </trkpt>
      <trkpt lat="43.59046" lon="6.43224">
        <ele>353.54</ele>
        <time>2013-06-11T09:36:53Z</time>
      </trkpt>
      <trkpt lat="43.59039" lon="6.43216">
        <ele>353.6</ele>
        <time>2013-06-11T09:37:02Z</time>
      </trkpt>
      <trkpt lat="43.59033" lon="6.43205">
        <ele>352.96</ele>
        <time>2013-06-11T09:37:14Z</time>
      </trkpt>
      <trkpt lat="43.59027" lon="6.43193">
        <ele>352.55</ele>
        <time>2013-06-11T09:37:29Z</time>
      </trkpt>
      <trkpt lat="43.59021" lon="6.4318">
        <ele>352.06</ele>
        <time>2013-06-11T09:37:38Z</time>
      </trkpt>
      <trkpt lat="43.5902" lon="6.43165">
        <ele>350.89</ele>
        <time>2013-06-11T09:37:50Z</time>
      </trkpt>
      <trkpt lat="43.59017" lon="6.4315">
        <ele>350</ele>
        <time>2013-06-11T09:37:59Z</time>
      </trkpt>
      <trkpt lat="43.59016" lon="6.43137">
        <ele>349.23</ele>
        <time>2013-06-11T09:38:08Z</time>
      </trkpt>
      <trkpt lat="43.59014" lon="6.43121">
        <ele>348.51</ele>
        <time>2013-06-11T09:38:20Z</time>
      </trkpt>
      <trkpt lat="43.59012" lon="6.43108">
        <ele>347.26</ele>
        <time>2013-06-11T09:38:32Z</time>
      </trkpt>
      <trkpt lat="43.59011" lon="6.43093">
        <ele>345.89</ele>
        <time>2013-06-11T09:38:44Z</time>
      </trkpt>
      <trkpt lat="43.59009" lon="6.4308">
        <ele>344.6</ele>
        <time>2013-06-11T09:38:53Z</time>
      </trkpt>
      <trkpt lat="43.59005" lon="6.43065">
        <ele>343.29</ele>
        <time>2013-06-11T09:39:05Z</time>
      </trkpt>
      <trkpt lat="43.59002" lon="6.43051">
        <ele>342.45</ele>
        <time>2013-06-11T09:39:17Z</time>
      </trkpt>
      <trkpt lat="43.59001" lon="6.43037">
        <ele>342.05</ele>
        <time>2013-06-11T09:39:29Z</time>
      </trkpt>
      <trkpt lat="43.59" lon="6.43024">
        <ele>341.89</ele>
        <time>2013-06-11T09:39:38Z</time>
      </trkpt>
      <trkpt lat="43.59001" lon="6.43008">
        <ele>341.71</ele>
        <time>2013-06-11T09:39:50Z</time>
      </trkpt>
      <trkpt lat="43.58999" lon="6.42994">
        <ele>341.52</ele>
        <time>2013-06-11T09:40:02Z</time>
      </trkpt>
      <trkpt lat="43.58996" lon="6.42981">
        <ele>341.36</ele>
        <time>2013-06-11T09:40:26Z</time>
      </trkpt>
      <trkpt lat="43.58991" lon="6.42969">
        <ele>340.92</ele>
        <time>2013-06-11T09:41:08Z</time>
      </trkpt>
      <trkpt lat="43.58994" lon="6.42951">
        <ele>341.08</ele>
        <time>2013-06-11T09:41:20Z</time>
      </trkpt>
      <trkpt lat="43.58994" lon="6.42933">
        <ele>340.81</ele>
        <time>2013-06-11T09:41:29Z</time>
      </trkpt>
      <trkpt lat="43.58994" lon="6.4292">
        <ele>340</ele>
        <time>2013-06-11T09:41:38Z</time>
      </trkpt>
      <trkpt lat="43.58993" lon="6.42907">
        <ele>339.53</ele>
        <time>2013-06-11T09:41:47Z</time>
      </trkpt>
      <trkpt lat="43.58989" lon="6.42892">
        <ele>338.98</ele>
        <time>2013-06-11T09:41:56Z</time>
      </trkpt>
      <trkpt lat="43.58987" lon="6.42877">
        <ele>337.92</ele>
        <time>2013-06-11T09:42:08Z</time>
      </trkpt>
      <trkpt lat="43.58979" lon="6.42868">
        <ele>336.7</ele>
        <time>2013-06-11T09:42:17Z</time>
      </trkpt>
      <trkpt lat="43.58976" lon="6.42854">
        <ele>335.06</ele>
        <time>2013-06-11T09:42:29Z</time>
      </trkpt>
      <trkpt lat="43.58972" lon="6.42841">
        <ele>334.02</ele>
        <time>2013-06-11T09:42:41Z</time>
      </trkpt>
      <trkpt lat="43.58964" lon="6.42833">
        <ele>333.24</ele>
        <time>2013-06-11T09:42:53Z</time>
      </trkpt>
      <trkpt lat="43.58955" lon="6.42824">
        <ele>331.89</ele>
        <time>2013-06-11T09:43:05Z</time>
      </trkpt>
      <trkpt lat="43.58946" lon="6.42819">
        <ele>331.51</ele>
        <time>2013-06-11T09:43:14Z</time>
      </trkpt>
      <trkpt lat="43.58944" lon="6.42807">
        <ele>330.85</ele>
        <time>2013-06-11T09:43:26Z</time>
      </trkpt>
      <trkpt lat="43.58939" lon="6.42796">
        <ele>330.27</ele>
        <time>2013-06-11T09:43:41Z</time>
      </trkpt>
      <trkpt lat="43.58949" lon="6.42796">
        <ele>325.7</ele>
        <time>2013-06-11T09:44:41Z</time>
      </trkpt>
      <trkpt lat="43.58942" lon="6.42788">
        <ele>323.24</ele>
        <time>2013-06-11T09:45:44Z</time>
      </trkpt>
      <trkpt lat="43.58938" lon="6.42774">
        <ele>324.2</ele>
        <time>2013-06-11T09:46:23Z</time>
      </trkpt>
      <trkpt lat="43.58931" lon="6.42763">
        <ele>323.96</ele>
        <time>2013-06-11T09:46:35Z</time>
      </trkpt>
      <trkpt lat="43.58927" lon="6.4275">
        <ele>323</ele>
        <time>2013-06-11T09:46:47Z</time>
      </trkpt>
      <trkpt lat="43.5892" lon="6.42739">
        <ele>322.94</ele>
        <time>2013-06-11T09:46:56Z</time>
      </trkpt>
      <trkpt lat="43.58912" lon="6.42732">
        <ele>323.32</ele>
        <time>2013-06-11T09:47:05Z</time>
      </trkpt>
      <trkpt lat="43.58905" lon="6.42722">
        <ele>324.31</ele>
        <time>2013-06-11T09:47:17Z</time>
      </trkpt>
      <trkpt lat="43.58911" lon="6.42708">
        <ele>326.28</ele>
        <time>2013-06-11T09:48:52Z</time>
      </trkpt>
      <trkpt lat="43.58892" lon="6.42704">
        <ele>326.45</ele>
        <time>2013-06-11T09:48:55Z</time>
      </trkpt>
      <trkpt lat="43.58887" lon="6.42692">
        <ele>327.89</ele>
        <time>2013-06-11T09:49:07Z</time>
      </trkpt>
      <trkpt lat="43.58886" lon="6.42679">
        <ele>328.55</ele>
        <time>2013-06-11T09:49:19Z</time>
      </trkpt>
      <trkpt lat="43.58879" lon="6.42667">
        <ele>328.4</ele>
        <time>2013-06-11T09:49:28Z</time>
      </trkpt>
      <trkpt lat="43.58874" lon="6.42656">
        <ele>327.45</ele>
        <time>2013-06-11T09:49:37Z</time>
      </trkpt>
      <trkpt lat="43.58868" lon="6.42646">
        <ele>326.71</ele>
        <time>2013-06-11T09:49:46Z</time>
      </trkpt>
      <trkpt lat="43.5886" lon="6.42632">
        <ele>325.97</ele>
        <time>2013-06-11T09:49:58Z</time>
      </trkpt>
      <trkpt lat="43.58855" lon="6.42621">
        <ele>325.37</ele>
        <time>2013-06-11T09:50:07Z</time>
      </trkpt>
      <trkpt lat="43.58853" lon="6.42605">
        <ele>324.52</ele>
        <time>2013-06-11T09:50:19Z</time>
      </trkpt>
      <trkpt lat="43.58851" lon="6.42592">
        <ele>324.14</ele>
        <time>2013-06-11T09:50:28Z</time>
      </trkpt>
      <trkpt lat="43.5885" lon="6.4258">
        <ele>323.93</ele>
        <time>2013-06-11T09:50:37Z</time>
      </trkpt>
      <trkpt lat="43.58847" lon="6.42566">
        <ele>323.96</ele>
        <time>2013-06-11T09:50:46Z</time>
      </trkpt>
      <trkpt lat="43.58839" lon="6.42557">
        <ele>323.66</ele>
        <time>2013-06-11T09:50:55Z</time>
      </trkpt>
      <trkpt lat="43.58832" lon="6.42548">
        <ele>323.55</ele>
        <time>2013-06-11T09:51:04Z</time>
      </trkpt>
      <trkpt lat="43.58824" lon="6.4254">
        <ele>323.49</ele>
        <time>2013-06-11T09:51:13Z</time>
      </trkpt>
      <trkpt lat="43.58817" lon="6.42531">
        <ele>323.61</ele>
        <time>2013-06-11T09:51:28Z</time>
      </trkpt>
      <trkpt lat="43.58808" lon="6.42517">
        <ele>323.7</ele>
        <time>2013-06-11T09:51:40Z</time>
      </trkpt>
      <trkpt lat="43.58799" lon="6.42505">
        <ele>323.82</ele>
        <time>2013-06-11T09:51:52Z</time>
      </trkpt>
      <trkpt lat="43.58791" lon="6.42497">
        <ele>323.66</ele>
        <time>2013-06-11T09:52:04Z</time>
      </trkpt>
      <trkpt lat="43.58785" lon="6.42483">
        <ele>323.17</ele>
        <time>2013-06-11T09:52:13Z</time>
      </trkpt>
      <trkpt lat="43.58781" lon="6.42471">
        <ele>322.87</ele>
        <time>2013-06-11T09:52:22Z</time>
      </trkpt>
      <trkpt lat="43.58776" lon="6.4246">
        <ele>322.61</ele>
        <time>2013-06-11T09:52:31Z</time>
      </trkpt>
      <trkpt lat="43.58769" lon="6.42451">
        <ele>321.7</ele>
        <time>2013-06-11T09:52:40Z</time>
      </trkpt>
      <trkpt lat="43.58756" lon="6.42449">
        <ele>320.69</ele>
        <time>2013-06-11T09:52:49Z</time>
      </trkpt>
      <trkpt lat="43.58745" lon="6.42453">
        <ele>319.78</ele>
        <time>2013-06-11T09:52:58Z</time>
      </trkpt>
      <trkpt lat="43.58735" lon="6.42455">
        <ele>318.48</ele>
        <time>2013-06-11T09:53:10Z</time>
      </trkpt>
      <trkpt lat="43.58724" lon="6.42455">
        <ele>317.57</ele>
        <time>2013-06-11T09:53:19Z</time>
      </trkpt>
      <trkpt lat="43.58714" lon="6.42454">
        <ele>316.46</ele>
        <time>2013-06-11T09:53:28Z</time>
      </trkpt>
      <trkpt lat="43.58702" lon="6.42457">
        <ele>314.88</ele>
        <time>2013-06-11T09:53:40Z</time>
      </trkpt>
      <trkpt lat="43.58692" lon="6.42457">
        <ele>313.95</ele>
        <time>2013-06-11T09:53:49Z</time>
      </trkpt>
      <trkpt lat="43.58681" lon="6.42457">
        <ele>313.25</ele>
        <time>2013-06-11T09:53:58Z</time>
      </trkpt>
      <trkpt lat="43.58672" lon="6.42454">
        <ele>312.56</ele>
        <time>2013-06-11T09:54:07Z</time>
      </trkpt>
      <trkpt lat="43.58661" lon="6.42453">
        <ele>312.07</ele>
        <time>2013-06-11T09:54:16Z</time>
      </trkpt>
      <trkpt lat="43.58651" lon="6.42451">
        <ele>312.06</ele>
        <time>2013-06-11T09:54:25Z</time>
      </trkpt>
      <trkpt lat="43.5864" lon="6.42446">
        <ele>312.09</ele>
        <time>2013-06-11T09:54:34Z</time>
      </trkpt>
      <trkpt lat="43.58631" lon="6.42444">
        <ele>311.59</ele>
        <time>2013-06-11T09:54:43Z</time>
      </trkpt>
      <trkpt lat="43.58619" lon="6.42442">
        <ele>310.72</ele>
        <time>2013-06-11T09:54:55Z</time>
      </trkpt>
      <trkpt lat="43.5861" lon="6.42439">
        <ele>310.26</ele>
        <time>2013-06-11T09:55:04Z</time>
      </trkpt>
      <trkpt lat="43.586" lon="6.42437">
        <ele>309.93</ele>
        <time>2013-06-11T09:55:13Z</time>
      </trkpt>
      <trkpt lat="43.58588" lon="6.42441">
        <ele>309.57</ele>
        <time>2013-06-11T09:55:22Z</time>
      </trkpt>
      <trkpt lat="43.58577" lon="6.42448">
        <ele>309.17</ele>
        <time>2013-06-11T09:55:34Z</time>
      </trkpt>
      <trkpt lat="43.58566" lon="6.42458">
        <ele>308.64</ele>
        <time>2013-06-11T09:55:43Z</time>
      </trkpt>
      <trkpt lat="43.58558" lon="6.42469">
        <ele>307.2</ele>
        <time>2013-06-11T09:55:55Z</time>
      </trkpt>
      <trkpt lat="43.58551" lon="6.42481">
        <ele>303.94</ele>
        <time>2013-06-11T09:56:07Z</time>
      </trkpt>
      <trkpt lat="43.58543" lon="6.42492">
        <ele>301.26</ele>
        <time>2013-06-11T09:56:16Z</time>
      </trkpt>
      <trkpt lat="43.58534" lon="6.42501">
        <ele>298.88</ele>
        <time>2013-06-11T09:56:25Z</time>
      </trkpt>
      <trkpt lat="43.58528" lon="6.42511">
        <ele>295.51</ele>
        <time>2013-06-11T09:56:43Z</time>
      </trkpt>
      <trkpt lat="43.58517" lon="6.42515">
        <ele>294.53</ele>
        <time>2013-06-11T09:56:52Z</time>
      </trkpt>
      <trkpt lat="43.58506" lon="6.42518">
        <ele>294.31</ele>
        <time>2013-06-11T09:57:01Z</time>
      </trkpt>
      <trkpt lat="43.58495" lon="6.42526">
        <ele>295.18</ele>
        <time>2013-06-11T09:57:13Z</time>
      </trkpt>
      <trkpt lat="43.58485" lon="6.42537">
        <ele>295.87</ele>
        <time>2013-06-11T09:57:22Z</time>
      </trkpt>
      <trkpt lat="43.58474" lon="6.42543">
        <ele>296.58</ele>
        <time>2013-06-11T09:57:34Z</time>
      </trkpt>
      <trkpt lat="43.58478" lon="6.4257">
        <ele>299.54</ele>
        <time>2013-06-11T09:58:46Z</time>
      </trkpt>
      <trkpt lat="43.58471" lon="6.42561">
        <ele>299.87</ele>
        <time>2013-06-11T09:58:52Z</time>
      </trkpt>
      <trkpt lat="43.58456" lon="6.42552">
        <ele>300.03</ele>
        <time>2013-06-11T09:58:55Z</time>
      </trkpt>
      <trkpt lat="43.58452" lon="6.42567">
        <ele>300.28</ele>
        <time>2013-06-11T09:59:01Z</time>
      </trkpt>
      <trkpt lat="43.58444" lon="6.42575">
        <ele>300.48</ele>
        <time>2013-06-11T09:59:07Z</time>
      </trkpt>
      <trkpt lat="43.58432" lon="6.42582">
        <ele>300.42</ele>
        <time>2013-06-11T09:59:16Z</time>
      </trkpt>
      <trkpt lat="43.58422" lon="6.42589">
        <ele>300.45</ele>
        <time>2013-06-11T09:59:25Z</time>
      </trkpt>
      <trkpt lat="43.58413" lon="6.42595">
        <ele>300.4</ele>
        <time>2013-06-11T09:59:34Z</time>
      </trkpt>
      <trkpt lat="43.58405" lon="6.42602">
        <ele>300.58</ele>
        <time>2013-06-11T10:00:17Z</time>
      </trkpt>
      <trkpt lat="43.58368" lon="6.42586">
        <ele>294.11</ele>
        <time>2013-06-11T10:01:03Z</time>
      </trkpt>
      <trkpt lat="43.58358" lon="6.42579">
        <ele>298.73</ele>
        <time>2013-06-11T10:01:12Z</time>
      </trkpt>
      <trkpt lat="43.58349" lon="6.4257">
        <ele>296.41</ele>
        <time>2013-06-11T10:01:21Z</time>
      </trkpt>
      <trkpt lat="43.58343" lon="6.42559">
        <ele>291.02</ele>
        <time>2013-06-11T10:01:30Z</time>
      </trkpt>
      <trkpt lat="43.58331" lon="6.42567">
        <ele>288.55</ele>
        <time>2013-06-11T10:01:42Z</time>
      </trkpt>
      <trkpt lat="43.5832" lon="6.42576">
        <ele>287.77</ele>
        <time>2013-06-11T10:01:51Z</time>
      </trkpt>
      <trkpt lat="43.58307" lon="6.42575">
        <ele>287.35</ele>
        <time>2013-06-11T10:02:00Z</time>
      </trkpt>
      <trkpt lat="43.58294" lon="6.42581">
        <ele>287.48</ele>
        <time>2013-06-11T10:02:09Z</time>
      </trkpt>
      <trkpt lat="43.58283" lon="6.42589">
        <ele>289.58</ele>
        <time>2013-06-11T10:02:21Z</time>
      </trkpt>
      <trkpt lat="43.58274" lon="6.4259">
        <ele>291.65</ele>
        <time>2013-06-11T10:02:33Z</time>
      </trkpt>
      <trkpt lat="43.58264" lon="6.42591">
        <ele>293.01</ele>
        <time>2013-06-11T10:02:48Z</time>
      </trkpt>
    </trkseg>
  </trk>
</gpx>